EDDH/HAM METAR and TAF weather

Enter ICAO airport designator
Station Type Date Time Source
EDDH METAR 2017/05/23 02:50 UTC NOAA

EDDH 230250Z 08003KT CAVOK 11/10 Q1015 NOSIG


Station Type Date Time Source
EDDH Decoded METAR 2017/05/23 02:50 UTC NOAA

Hamburg-Fuhlsbuettel, Germany (EDDH) 53-38N 010-00E 15M
May 22, 2017 - 10:50 PM EDT / 2017.05.23 0250 UTC
Wind: from the E (080 degrees) at 3 MPH (3 KT):0
Visibility: greater than 7 mile(s):0
Temperature: 51 F (11 C)
Dew Point: 50 F (10 C)
Relative Humidity: 93%
Pressure (altimeter): 29.97 in. Hg (1015 hPa)
ob: EDDH 230250Z 08003KT CAVOK 11/10 Q1015 NOSIG
cycle: 3

Station Type Date Time Source
EDDH TAF 2017/05/22 18:27 UTC NOAA

TAF EDDH 221700Z 2218/2324 10004KT CAVOK
BECMG 2304/2306 18008KT
BECMG 2311/2313 28010KT
TEMPO 2312/2319 29015G30KT SHRA BKN030CB PROB30
TEMPO 2312/2317 30020G45KT 2500 TSRAGR BKN012CB


Example: see airport list